Time Latitude Longitude Accuracy (66% radius in meters) Altitude (meters) Speed (km/hour) Bearing (degrees) Battery (%) GPS flag
07:15:41 57.203652 60.118698 0 0 0 0 1 delete
07:15:40 57.203653 60.118697 0 0 0 0 1 delete
07:15:39 57.203660 60.118690 0 0 0 0 1 delete
07:15:38 57.203670 60.118678 0 0 0 0 1 delete
07:15:37 57.203680 60.118653 0 0 0 0 1 delete
07:15:36 57.203690 60.118620 0 0 0 0 1 delete
07:15:35 57.203698 60.118583 0 0 0 0 1 delete
07:15:34 57.203705 60.118548 0 0 0 0 1 delete
07:15:33 57.203713 60.118507 0 0 0 0 1 delete
07:15:32 57.203720 60.118473 0 0 0 0 1 delete
07:15:31 57.203728 60.118442 0 0 0 0 1 delete
07:15:30 57.203738 60.118403 0 0 0 0 1 delete
07:15:29 57.203748 60.118373 0 0 0 0 1 delete
07:15:28 57.203760 60.118340 0 0 0 0 1 delete
07:15:27 57.203773 60.118300 0 0 0 0 1 delete
07:15:26 57.203787 60.118263 0 0 0 0 1 delete
07:15:25 57.203797 60.118227 0 0 0 0 1 delete
07:15:24 57.203808 60.118183 0 0 0 0 1 delete
07:15:23 57.203815 60.118145 0 0 0 0 1 delete
07:15:22 57.203822 60.118098 0 0 0 0 1 delete
07:15:21 57.203827 60.118052 0 0 0 0 1 delete
07:15:20 57.203828 60.118012 0 0 0 0 1 delete
07:15:19 57.203830 60.117963 0 0 0 0 1 delete
07:15:18 57.203827 60.117920 0 0 0 0 1 delete
07:15:17 57.203820 60.117878 0 0 0 0 1 delete
07:15:16 57.203812 60.117828 0 0 0 0 1 delete
07:15:15 57.203802 60.117783 0 0 0 0 1 delete
07:15:14 57.203792 60.117742 0 0 0 0 1 delete
07:15:13 57.203782 60.117697 0 0 0 0 1 delete
07:15:12 57.203770 60.117657 0 0 0 0 1 delete
07:15:11 57.203755 60.117613 0 0 0 0 1 delete
07:15:10 57.203742 60.117572 0 0 0 0 1 delete
07:15:09 57.203730 60.117538 0 0 0 0 1 delete
07:15:08 57.203720 60.117500 0 0 0 0 1 delete
07:15:07 57.203710 60.117465 0 0 0 0 1 delete
07:15:06 57.203702 60.117432 0 0 0 0 1 delete
07:15:05 57.203693 60.117392 0 0 0 0 1 delete
07:15:04 57.203683 60.117350 0 0 0 0 1 delete
07:15:03 57.203675 60.117313 0 0 0 0 1 delete
07:15:02 57.203668 60.117268 0 0 0 0 1 delete
07:15:01 57.203663 60.117222 0 0 0 0 1 delete
07:15:00 57.203658 60.117182 0 0 0 0 1 delete
07:14:59 57.203655 60.117137 0 0 0 0 1 delete
07:14:58 57.203652 60.117100 0 0 0 0 1 delete
07:14:57 57.203650 60.117070 0 0 0 0 1 delete
07:14:56 57.203647 60.117037 0 0 0 0 1 delete
07:14:55 57.203643 60.117000 0 0 0 0 1 delete
07:14:54 57.203642 60.116968 0 0 0 0 1 delete
07:14:53 57.203638 60.116928 0 0 0 0 1 delete
07:14:52 57.203637 60.116892 0 0 0 0 1 delete